Time;durP1;ratioP1;P1;durP2;ratioP2;P2;SDS_P1;SDS_P2;PMS_P1;PMS_P2;Temp;Humidity;BMP_temperature;BMP_pressure;BME280_temperature;BME280_humidity;BME280_pressure;Samples;Min_cycle;Max_cycle;Signal;HPM_P1;HPM_P2
2021/01/06 00:01:06;;;;;;;4.57;1.20;;;23.60;99.90;;;;;;5075085;28;20035;-61
2021/01/06 00:03:34;;;;;;;4.43;1.10;;;23.40;99.90;;;;;;5075896;28;20048;-62
2021/01/06 00:06:08;;;;;;;5.10;0.90;;;23.20;99.90;;;;;;5075445;28;20024;-65
2021/01/06 00:08:36;;;;;;;6.25;1.20;;;23.10;99.90;;;;;;5040269;28;20039;-62
2021/01/06 00:11:05;;;;;;;4.47;1.15;;;23.00;99.90;;;;;;5075382;28;20020;-63
2021/01/06 00:13:33;;;;;;;5.45;0.75;;;23.00;99.90;;;;;;5075369;28;20123;-63
2021/01/06 00:16:01;;;;;;;5.53;0.70;;;23.00;99.90;;;;;;5073964;28;20440;-63
2021/01/06 00:18:29;;;;;;;3.67;0.80;;;23.00;99.90;;;;;;5075712;28;20107;-64
2021/01/06 00:20:58;;;;;;;4.35;0.50;;;22.80;99.90;;;;;;5075407;28;20016;-64
2021/01/06 00:23:27;;;;;;;2.95;0.98;;;22.80;99.90;;;;;;5075171;28;20032;-63
2021/01/06 00:25:56;;;;;;;3.70;1.00;;;22.80;99.90;;;;;;5075251;28;20016;-64
2021/01/06 00:28:24;;;;;;;4.90;0.55;;;22.90;99.90;;;;;;5075112;28;20024;-63
2021/01/06 00:30:58;;;;;;;5.85;0.75;;;22.90;99.90;;;;;;5074205;28;20029;-64
2021/01/06 00:33:30;;;;;;;7.65;1.10;;;23.10;99.90;;;;;;5075257;28;20427;-62
2021/01/06 00:36:01;;;;;;;5.38;0.95;;;23.20;99.90;;;;;;5073956;28;20024;-65
2021/01/06 00:38:30;;;;;;;4.05;0.60;;;23.40;99.90;;;;;;5075071;28;20418;-62
2021/01/06 00:41:01;;;;;;;4.32;0.70;;;23.60;99.90;;;;;;5075027;28;20094;-63
2021/01/06 00:43:30;;;;;;;2.97;0.90;;;23.60;99.90;;;;;;5074792;28;20029;-62
2021/01/06 00:45:58;;;;;;;3.97;0.70;;;23.70;99.90;;;;;;5074779;28;20029;-63
2021/01/06 00:48:26;;;;;;;5.45;0.77;;;23.90;99.90;;;;;;5075035;28;20078;-61
2021/01/06 00:50:54;;;;;;;4.60;0.98;;;24.10;99.90;;;;;;5072822;28;20059;-61
2021/01/06 00:53:26;;;;;;;6.50;1.08;;;24.30;99.90;;;;;;5074590;28;20020;-61
2021/01/06 00:55:55;;;;;;;5.50;1.00;;;24.40;99.90;;;;;;5074919;28;20083;-62
2021/01/06 00:58:24;;;;;;;5.50;1.00;;;24.70;99.90;;;;;;5074516;28;20027;-62
2021/01/06 01:01:18;;;;;;;4.00;0.63;;;24.90;99.90;;;;;;5081282;28;20075;-62
2021/01/06 01:03:46;;;;;;;5.07;0.82;;;25.30;99.90;;;;;;5074463;28;20102;-62
2021/01/06 01:06:21;;;;;;;5.22;1.20;;;25.20;99.90;;;;;;5073114;28;20082;-62
2021/01/06 01:08:49;;;;;;;5.20;0.90;;;25.00;99.90;;;;;;5074609;28;20042;-62
2021/01/06 01:11:17;;;;;;;5.68;0.90;;;24.20;99.90;;;;;;5074220;28;20039;-62
2021/01/06 01:13:45;;;;;;;3.65;0.70;;;24.00;99.90;;;;;;5073401;28;20052;-63
2021/01/06 01:16:13;;;;;;;5.05;1.13;;;23.90;99.90;;;;;;5074363;28;20016;-63
2021/01/06 01:18:41;;;;;;;3.97;1.02;;;23.60;99.90;;;;;;5074139;28;20063;-62
2021/01/06 01:21:09;;;;;;;6.50;1.25;;;23.60;99.90;;;;;;5072255;28;20081;-64
2021/01/06 01:23:38;;;;;;;4.00;0.80;;;23.60;99.90;;;;;;5055807;28;20492;-64
2021/01/06 01:26:06;;;;;;;6.22;1.10;;;23.70;99.90;;;;;;5074249;28;20494;-64
2021/01/06 01:28:33;;;;;;;5.95;1.10;;;23.80;99.90;;;;;;5073919;28;20032;-67
2021/01/06 01:31:01;;;;;;;8.05;0.95;;;23.80;99.90;;;;;;5074149;28;20362;-63
2021/01/06 01:33:28;;;;;;;6.40;1.20;;;23.80;99.90;;;;;;5071935;28;20040;-63
2021/01/06 01:35:57;;;;;;;4.65;0.80;;;23.60;99.90;;;;;;5073738;28;20025;-64
2021/01/06 01:38:28;;;;;;;7.13;1.08;;;23.40;99.90;;;;;;5073726;28;20028;-62
2021/01/06 01:41:00;;;;;;;;;;;23.40;99.90;;;;;;5074360;28;20419;-61
2021/01/06 01:43:30;;;;;;;6.90;0.98;;;23.40;99.90;;;;;;5074156;28;20276;-64
2021/01/06 01:46:40;;;;;;;8.02;1.38;;;23.50;99.90;;;;;;5073968;28;20439;-64
2021/01/06 01:49:17;;;;;;;3.72;0.88;;;23.40;99.90;;;;;;5073803;28;20111;-64
2021/01/06 01:51:58;;;;;;;5.75;1.55;;;23.30;99.90;;;;;;5073801;28;20477;-65
2021/01/06 01:54:28;;;;;;;4.65;1.10;;;23.30;99.90;;;;;;5073413;28;20021;-65
2021/01/06 01:57:06;;;;;;;3.95;0.90;;;23.30;99.90;;;;;;5073774;28;20021;-65
2021/01/06 01:59:54;;;;;;;9.05;1.58;;;23.30;99.90;;;;;;5073374;28;20057;-65
2021/01/06 02:02:52;;;;;;;7.20;1.58;;;23.30;99.90;;;;;;5073491;28;20024;-65
2021/01/06 02:05:30;;;;;;;10.75;1.15;;;23.20;99.90;;;;;;5051299;28;20041;-65
2021/01/06 02:08:24;;;;;;;8.10;1.35;;;23.30;99.90;;;;;;5051327;28;20474;-65
2021/01/06 02:11:02;;;;;;;8.65;1.40;;;23.50;99.90;;;;;;5051123;28;20024;-64
2021/01/06 02:13:42;;;;;;;6.10;1.00;;;23.70;99.90;;;;;;5051077;28;20028;-64
2021/01/06 02:16:31;;;;;;;;;;;23.80;99.90;;;;;;5051672;28;20393;-62
2021/01/06 02:18:59;;;;;;;5.60;1.27;;;23.90;99.90;;;;;;5031147;28;19909;-64
2021/01/06 02:21:29;;;;;;;7.57;1.23;;;24.30;99.90;;;;;;5031149;28;20029;-62
2021/01/06 02:23:59;;;;;;;10.40;2.22;;;24.60;99.90;;;;;;5031105;28;20037;-64
2021/01/06 02:26:28;;;;;;;8.48;1.55;;;24.60;99.90;;;;;;5031231;28;20029;-64
2021/01/06 02:28:58;;;;;;;6.75;1.10;;;24.70;99.90;;;;;;5031080;28;20393;-63
2021/01/06 02:31:26;;;;;;;7.47;1.50;;;24.80;99.90;;;;;;5014553;28;20033;-63
2021/01/06 02:33:54;;;;;;;9.65;2.20;;;24.80;99.90;;;;;;5030824;28;20044;-63
2021/01/06 02:36:23;;;;;;;7.45;1.77;;;24.80;99.90;;;;;;5035826;28;20112;-63
2021/01/06 02:38:51;;;;;;;12.18;2.08;;;24.70;99.90;;;;;;5070926;28;20066;-63
2021/01/06 02:41:20;;;;;;;10.90;1.70;;;24.60;99.90;;;;;;5054059;28;20029;-63
2021/01/06 02:43:50;;;;;;;6.00;1.17;;;24.50;99.90;;;;;;5070814;28;20043;-63
2021/01/06 02:46:18;;;;;;;11.95;2.05;;;24.50;99.90;;;;;;5070846;28;20036;-60
2021/01/06 02:48:47;;;;;;;9.75;1.63;;;24.30;99.90;;;;;;5070836;28;20500;-64
2021/01/06 02:51:40;;;;;;;10.80;2.53;;;24.30;99.90;;;;;;5072861;28;20024;-63
2021/01/06 02:54:11;;;;;;;10.73;1.90;;;24.60;99.90;;;;;;5073101;28;20032;-64
2021/01/06 02:56:41;;;;;;;8.32;1.67;;;25.10;99.90;;;;;;5073100;28;20025;-64
2021/01/06 02:59:12;;;;;;;11.05;1.30;;;25.70;99.90;;;;;;5072911;28;20044;-64
2021/01/06 03:01:40;;;;;;;;;;;25.70;99.90;;;;;;5073543;28;20123;-63
2021/01/06 03:04:12;;;;;;;7.25;1.65;;;25.70;99.90;;;;;;5073096;28;19909;-63
2021/01/06 03:06:55;;;;;;;10.48;1.88;;;25.60;99.90;;;;;;5072992;28;20107;-63
2021/01/06 03:09:43;;;;;;;10.32;1.83;;;25.30;99.90;;;;;;5072862;28;20025;-63
2021/01/06 03:12:31;;;;;;;11.65;1.90;;;25.00;99.90;;;;;;5050584;28;20045;-63
2021/01/06 03:15:00;;;;;;;11.45;2.08;;;24.60;99.90;;;;;;5030676;28;20029;-63
2021/01/06 03:17:31;;;;;;;9.88;1.77;;;24.20;99.90;;;;;;5030574;28;20033;-63
2021/01/06 03:20:11;;;;;;;9.73;2.00;;;24.00;99.90;;;;;;5030520;28;20032;-63
2021/01/06 03:22:42;;;;;;;7.85;1.63;;;23.80;99.90;;;;;;5014200;28;20079;-63
2021/01/06 03:25:16;;;;;;;10.48;1.80;;;23.70;99.90;;;;;;5014318;28;20037;-63
2021/01/06 03:27:49;;;;;;;8.02;1.42;;;23.40;99.90;;;;;;5030614;28;20226;-63
2021/01/06 03:30:24;;;;;;;4.93;1.30;;;23.40;99.90;;;;;;5030570;28;20049;-63
2021/01/06 03:33:04;;;;;;;6.60;1.45;;;23.40;99.90;;;;;;5030530;28;20071;-62
2021/01/06 03:35:40;;;;;;;7.13;1.48;;;23.50;99.90;;;;;;5030402;28;20502;-62
2021/01/06 03:38:36;;;;;;;7.07;0.90;;;23.40;99.90;;;;;;5033427;28;20030;-62
2021/01/06 03:41:06;;;;;;;7.93;1.20;;;23.60;99.90;;;;;;5033913;28;20029;-62
2021/01/06 03:43:45;;;;;;;6.03;1.08;;;23.90;99.90;;;;;;5047740;28;20025;-62
2021/01/06 03:46:27;;;;;;;8.55;1.85;;;24.10;99.90;;;;;;5053737;28;20533;-62
2021/01/06 03:49:06;;;;;;;7.53;1.65;;;24.40;99.90;;;;;;5053679;28;20523;-62
2021/01/06 03:52:03;;;;;;;11.32;1.98;;;24.40;99.90;;;;;;5057527;28;20028;-62
2021/01/06 03:54:54;;;;;;;5.70;1.13;;;24.20;99.90;;;;;;5039827;28;20043;-62
2021/01/06 03:57:23;;;;;;;12.90;1.95;;;23.90;99.90;;;;;;5016952;28;20036;-63
2021/01/06 03:59:53;;;;;;;8.00;1.55;;;23.60;99.90;;;;;;4984389;28;20045;-62
2021/01/06 04:02:31;;;;;;;10.82;1.38;;;23.50;99.90;;;;;;5001009;28;20121;-63
2021/01/06 04:05:15;;;;;;;7.68;1.65;;;23.40;99.90;;;;;;5033508;28;20045;-64
2021/01/06 04:07:56;;;;;;;11.75;1.77;;;23.30;99.90;;;;;;5017065;28;20037;-65
2021/01/06 04:10:32;;;;;;;9.18;1.70;;;23.20;99.90;;;;;;5033421;28;20042;-62
2021/01/06 04:13:00;;;;;;;8.55;1.38;;;23.10;99.90;;;;;;5033436;28;20040;-62
2021/01/06 04:15:28;;;;;;;5.90;1.02;;;23.10;99.90;;;;;;5033479;28;20484;-63
2021/01/06 04:17:56;;;;;;;7.90;1.30;;;23.00;99.90;;;;;;5033295;28;20026;-64
2021/01/06 04:20:46;;;;;;;5.90;0.70;;;22.80;99.90;;;;;;5033624;28;20056;-63
2021/01/06 04:23:17;;;;;;;4.63;0.93;;;22.60;99.90;;;;;;5033702;28;20160;-64
2021/01/06 04:25:48;;;;;;;4.80;1.02;;;22.60;99.90;;;;;;5028978;28;20040;-62
2021/01/06 04:28:22;;;;;;;7.28;1.15;;;22.60;99.90;;;;;;5063660;28;20111;-63
2021/01/06 04:30:57;;;;;;;5.43;0.93;;;22.70;99.90;;;;;;5073416;28;20041;-63
2021/01/06 04:33:31;;;;;;;7.45;1.00;;;22.80;99.90;;;;;;5075267;28;20397;-63
2021/01/06 04:36:02;;;;;;;7.95;1.10;;;22.80;99.90;;;;;;5073910;28;20020;-63
2021/01/06 04:38:34;;;;;;;9.55;1.17;;;22.90;99.90;;;;;;5075536;28;20437;-62
2021/01/06 04:41:20;;;;;;;9.25;1.60;;;22.80;99.90;;;;;;5075285;28;20419;-62
2021/01/06 04:44:18;;;;;;;7.57;1.02;;;22.80;99.90;;;;;;5059850;28;20506;-62
2021/01/06 04:47:24;;;;;;;5.43;1.33;;;22.90;99.90;;;;;;5052857;28;20040;-63
2021/01/06 04:50:11;;;;;;;10.27;1.35;;;22.90;99.90;;;;;;5012952;28;20041;-64
2021/01/06 04:53:07;;;;;;;7.60;1.13;;;22.80;99.90;;;;;;4993348;28;20037;-63
2021/01/06 04:56:14;;;;;;;6.78;1.30;;;22.70;99.90;;;;;;4993302;28;20162;-62
2021/01/06 04:58:58;;;;;;;8.07;1.70;;;22.50;99.90;;;;;;4976822;28;20038;-62
2021/01/06 05:02:04;;;;;;;9.93;1.58;;;22.50;99.90;;;;;;4993323;28;20038;-62
2021/01/06 05:05:11;;;;;;;11.77;1.70;;;22.50;99.90;;;;;;4973606;28;20058;-62
2021/01/06 05:08:02;;;;;;;9.32;1.45;;;22.50;99.90;;;;;;4897048;29;20051;-62
2021/01/06 05:10:42;;;;;;;10.13;1.88;;;22.40;99.90;;;;;;4897382;29;20036;-63
2021/01/06 05:13:16;;;;;;;;;;;22.30;99.90;;;;;;4897491;29;20494;-62
2021/01/06 05:15:57;;;;;;;5.80;0.93;;;22.20;99.90;;;;;;4897087;29;20373;-63
2021/01/06 05:18:24;;;;;;;;;;;22.30;99.90;;;;;;4912291;29;20526;-62
2021/01/06 05:20:54;;;;;;;6.85;1.58;;;22.40;99.90;;;;;;4916011;29;19960;-62
2021/01/06 05:23:27;;;;;;;8.55;1.45;;;22.40;99.90;;;;;;4915682;29;20122;-67
2021/01/06 05:25:59;;;;;;;7.90;1.50;;;22.40;99.90;;;;;;4915721;29;20040;-62
2021/01/06 05:28:28;;;;;;;8.93;2.00;;;22.50;99.90;;;;;;4953591;29;20122;-62
2021/01/06 05:30:58;;;;;;;10.77;1.65;;;22.50;99.90;;;;;;4953953;29;20058;-62
2021/01/06 05:33:33;;;;;;;12.70;1.90;;;22.40;99.90;;;;;;4953925;29;20027;-62
2021/01/06 05:36:02;;;;;;;16.60;8.18;;;22.30;99.90;;;;;;4981391;28;20041;-63
2021/01/06 05:38:30;;;;;;;12.10;1.98;;;22.20;99.90;;;;;;5023075;28;20481;-62
2021/01/06 05:40:58;;;;;;;15.88;3.05;;;22.00;99.90;;;;;;5053900;28;20492;-62
2021/01/06 05:43:42;;;;;;;12.60;2.30;;;21.80;99.90;;;;;;5054057;28;20386;-61
2021/01/06 05:46:17;;;;;;;11.23;1.98;;;21.50;99.90;;;;;;5052030;28;20033;-61
2021/01/06 05:48:58;;;;;;;14.32;1.75;;;21.30;99.90;;;;;;5054055;28;20083;-61
2021/01/06 05:51:34;;;;;;;11.30;1.48;;;21.20;99.90;;;;;;5052454;28;20020;-62
2021/01/06 05:54:20;;;;;;;8.27;1.42;;;21.10;99.90;;;;;;5053683;28;20032;-63
2021/01/06 05:57:20;;;;;;;8.43;1.40;;;21.00;99.90;;;;;;5053885;28;20158;-63
2021/01/06 06:00:10;;;;;;;7.40;1.73;;;21.00;99.90;;;;;;5043471;28;20080;-61
2021/01/06 06:02:57;;;;;;;14.03;1.90;;;21.00;99.90;;;;;;5051482;28;20033;-62
2021/01/06 06:05:55;;;;;;;11.23;1.98;;;21.00;99.90;;;;;;5031461;28;20150;-62
2021/01/06 06:08:42;;;;;;;11.20;1.80;;;20.90;99.90;;;;;;5031421;28;20034;-62
2021/01/06 06:11:47;;;;;;;11.65;1.88;;;21.00;99.90;;;;;;5011595;28;20466;-63
2021/01/06 06:14:53;;;;;;;9.63;1.83;;;20.90;99.90;;;;;;5011520;28;20117;-61
2021/01/06 06:17:40;;;;;;;10.23;1.80;;;21.00;99.90;;;;;;4953146;29;20035;-62
2021/01/06 06:20:47;;;;;;;7.57;1.48;;;20.90;99.90;;;;;;4953190;29;20436;-63
2021/01/06 06:23:53;;;;;;;10.30;2.08;;;21.00;99.90;;;;;;4896139;29;20068;-62
2021/01/06 06:26:58;;;;;;;9.10;1.30;;;21.10;99.90;;;;;;4803885;29;20043;-64
2021/01/06 06:29:48;;;;;;;10.13;1.70;;;21.00;99.90;;;;;;4804127;29;20046;-62
2021/01/06 06:32:17;;;;;;;8.30;1.58;;;20.90;99.90;;;;;;4804062;29;20046;-62
2021/01/06 06:34:46;;;;;;;9.40;1.23;;;20.90;99.90;;;;;;4804065;29;20042;-63
2021/01/06 06:37:20;;;;;;;11.70;1.60;;;20.90;99.90;;;;;;4804001;29;20038;-64
2021/01/06 06:39:53;;;;;;;9.35;1.52;;;20.90;99.90;;;;;;4803997;29;20058;-62
2021/01/06 06:42:59;;;;;;;7.30;1.63;;;21.00;99.90;;;;;;4815044;29;20034;-62
2021/01/06 06:45:46;;;;;;;9.38;1.92;;;21.00;99.90;;;;;;4803814;29;20043;-61
2021/01/06 06:48:39;;;;;;;15.98;2.97;;;21.10;99.90;;;;;;4851085;29;20072;-61
2021/01/06 06:51:15;;;;;;;15.90;3.05;;;21.10;99.90;;;;;;4858591;29;20045;-63
2021/01/06 06:54:19;;;;;;;9.05;1.80;;;21.30;99.90;;;;;;4858531;29;20113;-62
2021/01/06 06:56:58;;;;;;;11.90;2.05;;;21.40;99.90;;;;;;4829246;29;20038;-64
2021/01/06 06:59:58;;;;;;;9.43;1.52;;;21.40;99.90;;;;;;4840075;29;20109;-62
2021/01/06 07:02:26;;;;;;;11.85;2.17;;;21.40;99.90;;;;;;4877181;29;20036;-64
2021/01/06 07:05:00;;;;;;;11.00;1.90;;;21.70;99.90;;;;;;4931443;29;20433;-64
2021/01/06 07:07:52;;;;;;;11.95;2.13;;;22.40;99.90;;;;;;4933606;29;20032;-63
2021/01/06 07:10:33;;;;;;;10.48;1.58;;;23.00;99.90;;;;;;4933922;29;20047;-62
2021/01/06 07:13:10;;;;;;;11.80;2.78;;;22.90;99.90;;;;;;4937278;29;20039;-63
2021/01/06 07:15:47;;;;;;;11.38;1.98;;;22.70;99.90;;;;;;4937121;29;20049;-64
2021/01/06 07:18:26;;;;;;;10.98;2.38;;;22.60;99.90;;;;;;4937261;29;20059;-63
2021/01/06 07:21:07;;;;;;;11.60;1.63;;;22.70;99.90;;;;;;4936988;29;20044;-64
2021/01/06 07:23:39;;;;;;;9.35;1.60;;;22.80;99.90;;;;;;4952121;29;20039;-64
2021/01/06 07:26:19;;;;;;;5.78;1.52;;;22.70;99.90;;;;;;4956162;29;20040;-65
2021/01/06 07:28:47;;;;;;;9.52;1.10;;;22.60;99.90;;;;;;5000771;28;20037;-64
2021/01/06 07:31:23;;;;;;;8.35;1.58;;;22.50;99.90;;;;;;5014742;28;20064;-61
2021/01/06 07:33:56;;;;;;;9.23;1.20;;;22.30;99.90;;;;;;5055416;28;20047;-63
2021/01/06 07:36:28;;;;;;;11.10;1.52;;;22.00;99.90;;;;;;5074011;28;20063;-64
2021/01/06 07:38:57;;;;;;;10.23;1.27;;;21.80;99.90;;;;;;5074141;28;20056;-63
2021/01/06 07:41:27;;;;;;;5.93;1.27;;;21.60;99.90;;;;;;5073910;28;20068;-64
2021/01/06 07:44:21;;;;;;;8.18;1.40;;;21.50;99.90;;;;;;5074040;28;20431;-63
2021/01/06 07:47:16;;;;;;;7.20;1.13;;;21.40;99.90;;;;;;5034247;28;20478;-63
2021/01/06 07:49:52;;;;;;;10.18;1.63;;;21.40;99.90;;;;;;5017417;28;20041;-63
2021/01/06 07:52:44;;;;;;;11.88;1.73;;;21.20;99.90;;;;;;5033979;28;20038;-62
2021/01/06 07:55:36;;;;;;;8.60;1.60;;;21.10;99.90;;;;;;5033739;28;20053;-64
2021/01/06 07:58:19;;;;;;;6.55;1.30;;;21.00;99.90;;;;;;5051747;28;20029;-63
2021/01/06 08:01:09;;;;;;;8.90;1.60;;;20.90;99.90;;;;;;5053821;28;20041;-64
2021/01/06 08:03:57;;;;;;;10.32;1.90;;;20.90;99.90;;;;;;5053626;28;20045;-64
2021/01/06 08:06:50;;;;;;;8.63;1.13;;;20.90;99.90;;;;;;5053590;28;20025;-63
2021/01/06 08:09:37;;;;;;;6.43;1.20;;;20.80;99.90;;;;;;5033567;28;20538;-63
2021/01/06 08:12:34;;;;;;;6.20;1.55;;;20.80;99.90;;;;;;4994065;28;20042;-63
2021/01/06 08:15:24;;;;;;;7.80;1.15;;;20.80;99.90;;;;;;4974552;28;20039;-63
2021/01/06 08:18:07;;;;;;;9.90;1.48;;;20.80;99.90;;;;;;4904240;29;20040;-63
2021/01/06 08:20:40;;;;;;;11.40;1.77;;;20.80;99.90;;;;;;4920296;29;20024;-63
2021/01/06 08:23:26;;;;;;;17.25;1.40;;;20.70;99.90;;;;;;4935635;29;20035;-63
2021/01/06 08:26:16;;;;;;;9.98;1.75;;;20.70;99.90;;;;;;4936022;29;20489;-63
2021/01/06 08:28:44;;;;;;;10.68;1.65;;;20.70;99.90;;;;;;4936027;29;20047;-62
2021/01/06 08:31:17;;;;;;;9.02;1.42;;;20.70;99.90;;;;;;4935766;29;20075;-63
2021/01/06 08:33:59;;;;;;;8.05;1.70;;;20.60;99.90;;;;;;4935623;29;20031;-63
2021/01/06 08:36:34;;;;;;;16.17;2.70;;;20.60;99.90;;;;;;4935899;29;20036;-63
2021/01/06 08:39:17;;;;;;;11.45;2.55;;;20.60;99.90;;;;;;4936196;29;20028;-63
2021/01/06 08:41:47;;;;;;;11.63;2.08;;;20.60;99.90;;;;;;4938772;29;20461;-63
2021/01/06 08:44:49;;;;;;;9.88;3.28;;;20.60;99.90;;;;;;4961428;28;20034;-63
2021/01/06 08:47:33;;;;;;;11.02;3.65;;;20.50;99.90;;;;;;4993606;28;20061;-63
2021/01/06 08:50:39;;;;;;;11.15;3.13;;;20.50;99.90;;;;;;5036122;28;20040;-63
2021/01/06 08:53:08;;;;;;;7.97;3.60;;;20.50;99.90;;;;;;5013112;28;20129;-63
2021/01/06 08:55:58;;;;;;;15.10;7.13;;;20.50;99.90;;;;;;5012829;28;20041;-63
2021/01/06 08:58:42;;;;;;;7.77;5.77;;;20.50;99.90;;;;;;4993102;28;20130;-64
2021/01/06 09:01:24;;;;;;;10.43;8.15;;;20.40;99.90;;;;;;4977129;28;20042;-63
2021/01/06 09:04:13;;;;;;;8.57;7.78;;;20.40;99.90;;;;;;4993436;28;20070;-63
2021/01/06 09:07:19;;;;;;;11.38;8.90;;;20.40;99.90;;;;;;4993230;28;20050;-63
2021/01/06 09:10:12;;;;;;;8.35;1.77;;;20.40;99.90;;;;;;4993049;28;20045;-64
2021/01/06 09:13:00;;;;;;;9.48;2.85;;;20.40;99.90;;;;;;4973499;28;20035;-64
2021/01/06 09:15:58;;;;;;;9.02;1.77;;;20.40;99.90;;;;;;4973476;28;20031;-63
2021/01/06 09:18:39;;;;;;;7.55;1.73;;;20.30;99.90;;;;;;4934862;29;20087;-64
2021/01/06 09:21:20;;;;;;;7.45;1.05;;;20.30;99.90;;;;;;4935057;29;20073;-63
2021/01/06 09:23:57;;;;;;;10.77;1.38;;;20.30;99.90;;;;;;4946907;28;20074;-63
2021/01/06 09:26:27;;;;;;;7.57;1.23;;;20.20;99.90;;;;;;4918978;29;20063;-63
2021/01/06 09:29:14;;;;;;;;;;;20.20;99.90;;;;;;4946881;28;20036;-63
2021/01/06 09:31:49;;;;;;;7.03;1.30;;;20.20;99.90;;;;;;4934734;29;19907;-63
2021/01/06 09:34:21;;;;;;;10.38;1.60;;;20.30;99.90;;;;;;4933871;29;20553;-62
2021/01/06 09:36:51;;;;;;;9.20;5.15;;;20.20;99.90;;;;;;4934792;29;20040;-62
2021/01/06 09:39:30;;;;;;;6.25;1.20;;;20.20;99.90;;;;;;4934697;29;20031;-63
2021/01/06 09:42:01;;;;;;;12.98;1.90;;;20.20;99.90;;;;;;4934483;29;20032;-63
2021/01/06 09:44:31;;;;;;;9.10;1.17;;;20.20;99.90;;;;;;4951639;29;20596;-63
2021/01/06 09:47:10;;;;;;;8.32;1.15;;;20.20;99.90;;;;;;4953773;29;20488;-63
2021/01/06 09:49:45;;;;;;;7.13;1.88;;;20.20;99.90;;;;;;4953701;29;20039;-63
2021/01/06 09:52:36;;;;;;;6.75;1.20;;;20.10;99.90;;;;;;4953664;29;20043;-63
2021/01/06 09:55:07;;;;;;;8.98;1.98;;;20.10;99.90;;;;;;4960221;28;20044;-62
2021/01/06 09:57:39;;;;;;;13.77;1.13;;;20.10;99.90;;;;;;5003789;28;20041;-61
2021/01/06 10:00:31;;;;;;;7.63;1.20;;;20.10;99.90;;;;;;5011655;28;20046;-62
2021/01/06 10:03:00;;;;;;;7.78;1.05;;;20.00;99.90;;;;;;5036687;28;20029;-63
2021/01/06 10:05:53;;;;;;;11.77;1.90;;;20.00;99.90;;;;;;5051362;28;20053;-62
2021/01/06 10:08:59;;;;;;;10.73;1.35;;;20.00;99.90;;;;;;5011732;28;20109;-62
2021/01/06 10:12:02;;;;;;;9.75;2.00;;;20.00;99.90;;;;;;4972512;28;20051;-62
2021/01/06 10:14:58;;;;;;;11.05;1.80;;;19.90;99.90;;;;;;4972200;28;20066;-64
2021/01/06 10:18:04;;;;;;;9.68;1.30;;;19.90;99.90;;;;;;4972393;28;20605;-63
2021/01/06 10:20:56;;;;;;;7.93;0.85;;;19.90;99.90;;;;;;4933886;29;20058;-64
2021/01/06 10:23:52;;;;;;;9.90;1.83;;;19.90;99.90;;;;;;4934032;29;20039;-63
2021/01/06 10:26:47;;;;;;;9.15;1.42;;;19.80;99.90;;;;;;4908338;29;20036;-63
2021/01/06 10:29:33;;;;;;;7.35;1.40;;;19.70;99.90;;;;;;4877336;29;20033;-64
2021/01/06 10:32:04;;;;;;;4.35;0.75;;;19.70;99.90;;;;;;4877404;29;20089;-64
2021/01/06 10:34:45;;;;;;;5.13;0.82;;;19.80;99.90;;;;;;4861768;29;20124;-63
2021/01/06 10:37:31;;;;;;;;;;;19.70;99.90;;;;;;4877769;29;20037;-64
2021/01/06 10:40:25;;;;;;;8.80;1.20;;;19.80;99.90;;;;;;4877312;29;20373;-64
2021/01/06 10:42:53;;;;;;;4.57;1.00;;;19.80;99.90;;;;;;4843269;29;20045;-63
2021/01/06 10:45:44;;;;;;;6.68;1.10;;;19.80;99.90;;;;;;4866160;29;20550;-63
2021/01/06 10:48:44;;;;;;;6.30;0.90;;;19.80;99.90;;;;;;4869763;29;20047;-64
2021/01/06 10:51:31;;;;;;;7.55;1.10;;;19.90;99.90;;;;;;4913689;29;20039;-64
2021/01/06 10:54:04;;;;;;;4.15;1.00;;;19.90;99.90;;;;;;4937904;29;20146;-65
2021/01/06 10:56:32;;;;;;;6.97;1.08;;;20.00;99.90;;;;;;4942620;28;20057;-64
2021/01/06 10:59:14;;;;;;;8.48;1.00;;;19.90;99.90;;;;;;4995267;28;20154;-64
2021/01/06 11:02:14;;;;;;;7.93;4.68;;;20.00;99.90;;;;;;4995533;28;20053;-67
2021/01/06 11:04:55;;;;;;;7.63;5.47;;;20.00;99.90;;;;;;4995466;28;20053;-63
2021/01/06 11:07:57;;;;;;;12.73;5.10;;;20.00;99.90;;;;;;5046183;28;20032;-64
2021/01/06 11:10:49;;;;;;;9.90;6.00;;;20.00;99.90;;;;;;5014974;28;20086;-64
2021/01/06 11:13:21;;;;;;;6.20;1.23;;;20.10;99.90;;;;;;5026012;28;20074;-63
2021/01/06 11:16:18;;;;;;;7.90;2.05;;;20.10;99.90;;;;;;5054458;28;20116;-63
2021/01/06 11:18:48;;;;;;;10.02;1.45;;;20.10;99.90;;;;;;5014734;28;20034;-63
2021/01/06 11:24:56;;;;;;;4.55;0.88;;;20.00;99.90;;;;;;4995002;28;20042;-64
2021/01/06 11:28:03;;;;;;;10.55;1.40;;;20.00;99.90;;;;;;4956066;29;20397;-63
2021/01/06 11:30:41;;;;;;;4.45;1.10;;;19.90;99.90;;;;;;4955991;29;20095;-63
2021/01/06 11:33:17;;;;;;;8.45;1.30;;;19.90;99.90;;;;;;4939601;29;20035;-64
2021/01/06 11:36:15;;;;;;;9.70;1.13;;;19.90;99.90;;;;;;4955863;29;20035;-63
2021/01/06 11:38:54;;;;;;;6.13;1.17;;;19.90;99.90;;;;;;4955810;29;20039;-62
2021/01/06 11:42:00;;;;;;;8.13;1.20;;;19.80;99.90;;;;;;4951262;28;20034;-63
2021/01/06 11:44:50;;;;;;;6.97;1.10;;;19.80;99.90;;;;;;4975168;28;20039;-62
2021/01/06 11:47:45;;;;;;;8.13;1.13;;;19.80;99.90;;;;;;4937161;29;20107;-64
2021/01/06 11:50:51;;;;;;;6.15;1.02;;;19.70;99.90;;;;;;4896115;29;20044;-63
2021/01/06 11:53:41;;;;;;;5.43;0.80;;;19.70;99.90;;;;;;4879768;29;20041;-64
2021/01/06 11:56:34;;;;;;;9.40;1.25;;;19.60;99.90;;;;;;4895765;29;20169;-63
2021/01/06 11:59:32;;;;;;;4.10;0.60;;;19.60;99.90;;;;;;4887919;29;20141;-64
2021/01/06 12:02:28;;;;;;;5.80;1.23;;;19.60;99.90;;;;;;4917312;29;20085;-62
2021/01/06 12:05:31;;;;;;;5.60;0.75;;;19.60;99.90;;;;;;4917276;29;20481;-65
2021/01/06 12:08:34;;;;;;;6.57;1.10;;;19.60;99.90;;;;;;4917266;29;20440;-64
2021/01/06 12:11:33;;;;;;;4.75;0.68;;;19.60;99.90;;;;;;4917342;29;20044;-64
2021/01/06 12:14:33;;;;;;;6.43;1.17;;;19.50;99.90;;;;;;4916739;29;20047;-63
2021/01/06 12:17:23;;;;;;;5.03;0.80;;;19.50;99.90;;;;;;4898144;29;20418;-64
2021/01/06 12:20:21;;;;;;;6.15;1.02;;;19.40;99.90;;;;;;4917117;29;20497;-64
2021/01/06 12:23:14;;;;;;;11.30;1.80;;;19.30;99.90;;;;;;4955389;28;20032;-62
2021/01/06 12:25:57;;;;;;;7.28;1.30;;;19.20;99.90;;;;;;4935867;29;20043;-62
2021/01/06 12:28:52;;;;;;;9.18;1.27;;;19.20;99.90;;;;;;4955031;29;20034;-64
2021/01/06 12:31:38;;;;;;;16.25;1.88;;;19.10;99.90;;;;;;4955101;29;20039;-63
2021/01/06 12:34:16;;;;;;;10.00;1.60;;;19.10;99.90;;;;;;4992190;28;20035;-64
2021/01/06 12:37:22;;;;;;;10.02;1.30;;;19.10;99.90;;;;;;4993632;28;20057;-62
2021/01/06 12:40:24;;;;;;;12.07;1.40;;;19.10;99.90;;;;;;4974143;28;20130;-63
2021/01/06 12:43:01;;;;;;;10.05;1.45;;;19.10;99.90;;;;;;4973961;28;20396;-63
2021/01/06 12:45:37;;;;;;;6.45;1.20;;;19.10;99.90;;;;;;4989564;28;20035;-62
2021/01/06 12:48:16;;;;;;;6.78;1.38;;;19.10;99.90;;;;;;5003805;28;20034;-63
2021/01/06 12:51:04;;;;;;;9.30;1.48;;;19.10;99.90;;;;;;5012897;28;20030;-63
2021/01/06 12:53:51;;;;;;;7.53;1.60;;;19.20;99.90;;;;;;5013117;28;20507;-63
2021/01/06 12:56:38;;;;;;;8.48;1.30;;;19.20;99.90;;;;;;5013222;28;20038;-63
2021/01/06 12:59:16;;;;;;;6.82;1.25;;;19.20;99.90;;;;;;5013025;28;20046;-63
2021/01/06 13:02:07;;;;;;;11.18;1.52;;;19.30;99.90;;;;;;5012851;28;20072;-63
2021/01/06 13:04:43;;;;;;;7.88;1.40;;;19.30;99.90;;;;;;5012904;28;20045;-63
2021/01/06 13:07:25;;;;;;;10.55;1.83;;;19.30;99.90;;;;;;5012983;28;20119;-63
2021/01/06 13:10:08;;;;;;;8.23;1.30;;;19.40;99.90;;;;;;4996272;28;20033;-63
2021/01/06 13:12:50;;;;;;;12.73;1.77;;;19.40;99.90;;;;;;5012701;28;20026;-63
2021/01/06 13:15:35;;;;;;;9.77;1.23;;;19.30;99.90;;;;;;5012591;28;20070;-63
2021/01/06 13:18:13;;;;;;;5.45;1.40;;;19.40;99.90;;;;;;5071118;28;20175;-63
2021/01/06 13:21:02;;;;;;;7.70;1.17;;;19.40;99.90;;;;;;5039090;28;20049;-63
2021/01/06 13:24:01;;;;;;;10.90;1.40;;;19.40;99.90;;;;;;5032372;28;20029;-63
2021/01/06 13:26:57;;;;;;;7.20;1.33;;;19.40;99.90;;;;;;5012477;28;20034;-63
2021/01/06 13:29:37;;;;;;;5.68;1.10;;;19.40;99.90;;;;;;5012463;28;20546;-63
2021/01/06 13:32:14;;;;;;;8.27;0.93;;;19.40;99.90;;;;;;5012379;28;20030;-64
2021/01/06 13:35:02;;;;;;;8.40;1.38;;;19.40;99.90;;;;;;5012203;28;20129;-63
2021/01/06 13:37:35;;;;;;;8.65;1.33;;;19.40;99.90;;;;;;4992616;28;20034;-63
2021/01/06 13:40:29;;;;;;;7.15;1.20;;;19.40;99.90;;;;;;4992590;28;20122;-63
2021/01/06 13:43:05;;;;;;;10.70;1.17;;;19.40;99.90;;;;;;4973199;28;20039;-63
2021/01/06 13:45:56;;;;;;;7.68;1.05;;;19.40;99.90;;;;;;4973061;28;20547;-64
2021/01/06 13:49:02;;;;;;;7.68;1.00;;;19.40;99.90;;;;;;4973203;28;20094;-63
2021/01/06 13:51:45;;;;;;;8.10;1.00;;;19.40;99.90;;;;;;4953587;29;20122;-63
2021/01/06 13:54:52;;;;;;;11.60;1.42;;;19.40;99.90;;;;;;4953564;29;20043;-63
2021/01/06 13:57:57;;;;;;;9.18;1.65;;;19.50;99.90;;;;;;4906605;29;20039;-64
2021/01/06 14:01:03;;;;;;;11.48;4.93;;;19.40;99.90;;;;;;4921057;29;20059;-63
2021/01/06 14:03:49;;;;;;;4.65;1.35;;;19.20;99.90;;;;;;4915178;29;20036;-63